Time;durP1;ratioP1;P1;durP2;ratioP2;P2;SDS_P1;SDS_P2;PMS_P1;PMS_P2;Temp;Humidity;BMP_temperature;BMP_pressure;BME280_temperature;BME280_humidity;BME280_pressure;Samples;Min_cycle;Max_cycle;Signal;HPM_P1;HPM_P2
2021/08/03 00:02:25;;;;;;;;;;;15.20;99.90;;;;;;5093080;28;19915;-67
2021/08/03 00:04:55;;;;;;;;;;;15.20;99.90;;;;;;5092951;28;19908;-68
2021/08/03 00:07:22;;;;;;;;;;;15.30;99.90;;;;;;5092977;28;20422;-69
2021/08/03 00:09:49;;;;;;;;;;;15.30;99.90;;;;;;5092806;28;19912;-69
2021/08/03 00:12:17;;;;;;;;;;;15.40;99.90;;;;;;5092845;28;20351;-69
2021/08/03 00:14:45;;;;;;;;;;;15.50;99.90;;;;;;5092633;28;19931;-69
2021/08/03 00:17:13;;;;;;;;;;;15.50;99.90;;;;;;5092528;28;19908;-69
2021/08/03 00:19:40;;;;;;;;;;;15.50;99.90;;;;;;5092519;28;19909;-69
2021/08/03 00:22:07;;;;;;;;;;;15.60;99.90;;;;;;5091165;28;20438;-69
2021/08/03 00:24:35;;;;;;;;;;;15.70;99.90;;;;;;5092413;28;20359;-68
2021/08/03 00:27:02;;;;;;;;;;;15.70;99.90;;;;;;5092534;28;20011;-67
2021/08/03 00:29:29;;;;;;;;;;;15.70;99.90;;;;;;5092509;28;19922;-66
2021/08/03 00:31:56;;;;;;;;;;;15.80;99.90;;;;;;5091180;28;20313;-66
2021/08/03 00:34:23;;;;;;;;;;;15.90;99.90;;;;;;5092563;28;19912;-67
2021/08/03 00:36:50;;;;;;;;;;;16.00;99.90;;;;;;5091273;28;19914;-67
2021/08/03 00:39:17;;;;;;;;;;;16.00;99.90;;;;;;5092176;28;20082;-67
2021/08/03 00:41:57;;;;;;;;;;;16.00;99.90;;;;;;5092236;28;19954;-66
2021/08/03 00:44:39;;;;;;;;;;;16.10;99.90;;;;;;5093196;28;19923;-67
2021/08/03 00:47:06;;;;;;;;;;;16.30;99.90;;;;;;5096790;28;19973;-67
2021/08/03 00:49:32;;;;;;;;;;;16.30;99.90;;;;;;5095930;28;19916;-67
2021/08/03 00:51:59;;;;;;;;;;;16.30;99.90;;;;;;5095241;28;20392;-67
2021/08/03 00:54:26;;;;;;;;;;;16.30;99.90;;;;;;5096331;28;19908;-66
2021/08/03 00:56:52;;;;;;;;;;;16.30;99.90;;;;;;5096453;28;19959;-69
2021/08/03 00:59:19;;;;;;;;;;;16.40;99.90;;;;;;5096417;28;20274;-68
2021/08/03 01:01:46;;;;;;;;;;;16.50;99.90;;;;;;5082604;28;19909;-66
2021/08/03 01:04:14;;;;;;;;;;;16.60;99.50;;;;;;5075797;28;19912;-67
2021/08/03 01:06:45;;;;;;;;;;;16.60;99.90;;;;;;5076031;28;19961;-66
2021/08/03 01:09:29;;;;;;;;;;;16.70;99.00;;;;;;5075646;28;19916;-66
2021/08/03 01:11:59;;;;;;;;;;;16.80;97.90;;;;;;5075724;28;20386;-67
2021/08/03 01:14:26;;;;;;;;;;;17.50;98.10;;;;;;5075958;28;19909;-65
2021/08/03 01:17:18;;;;;;;;;;;17.80;96.70;;;;;;5075431;28;19948;-68
2021/08/03 01:20:03;;;;;;;;;;;18.20;95.90;;;;;;5073880;28;19912;-66
2021/08/03 01:22:47;;;;;;;;;;;18.40;94.40;;;;;;5075743;28;19959;-66
2021/08/03 01:25:32;;;;;;;;;;;18.30;94.10;;;;;;5075497;28;19962;-65
2021/08/03 01:28:14;;;;;;;;;;;18.20;94.40;;;;;;5075604;28;19946;-65
2021/08/03 01:30:46;;;;;;;;;;;18.20;93.80;;;;;;5075699;28;19996;-67
2021/08/03 01:33:15;;;;;;;;;;;18.40;94.10;;;;;;5075410;28;19915;-66
2021/08/03 01:35:42;;;;;;;;;;;18.30;94.60;;;;;;5074988;28;19908;-66
2021/08/03 01:38:09;;;;;;;;;;;18.30;93.50;;;;;;5075370;28;19909;-65
2021/08/03 01:40:37;;;;;;;;;;;18.10;93.70;;;;;;5075244;28;19912;-66
2021/08/03 01:43:05;;;;;;;;;;;17.90;92.90;;;;;;5075401;28;19994;-66
2021/08/03 01:45:33;;;;;;;;;;;17.70;93.70;;;;;;5074877;28;19927;-66
2021/08/03 01:48:01;;;;;;;;;;;17.60;94.00;;;;;;5074971;28;20058;-66
2021/08/03 01:50:28;;;;;;;;;;;17.60;94.30;;;;;;5074953;28;19915;-65
2021/08/03 01:52:57;;;;;;;;;;;17.60;93.20;;;;;;5075022;28;19923;-67
2021/08/03 01:55:25;;;;;;;;;;;17.60;94.20;;;;;;5074276;28;19908;-66
2021/08/03 01:57:52;;;;;;;;;;;17.60;95.00;;;;;;5074719;28;19912;-68
2021/08/03 02:00:20;;;;;;;;;;;17.60;94.10;;;;;;5075005;28;19909;-67
2021/08/03 02:02:47;;;;;;;;;;;17.50;94.40;;;;;;5074833;28;19909;-66
2021/08/03 02:05:13;;;;;;;;;;;17.40;93.40;;;;;;5075042;28;19971;-66
2021/08/03 02:07:41;;;;;;;;;;;17.30;94.70;;;;;;5074735;28;20239;-67
2021/08/03 02:10:08;;;;;;;;;;;17.40;93.60;;;;;;5074841;28;19916;-67
2021/08/03 02:12:35;;;;;;;;;;;17.50;94.20;;;;;;5074937;28;20003;-66
2021/08/03 02:15:03;;;;;;;;;;;17.40;92.70;;;;;;5074725;28;19912;-66
2021/08/03 02:17:30;;;;;;;;;;;17.60;91.40;;;;;;5074455;28;20062;-66
2021/08/03 02:19:56;;;;;;;;;;;17.60;90.90;;;;;;5074699;28;19912;-66
2021/08/03 02:22:23;;;;;;;;;;;17.60;91.20;;;;;;5074306;28;19930;-66
2021/08/03 02:24:50;;;;;;;;;;;17.60;91.40;;;;;;5074354;28;19909;-65
2021/08/03 02:27:16;;;;;;;;;;;17.70;90.90;;;;;;5074444;28;20003;-65
2021/08/03 02:29:44;;;;;;;;;;;17.70;90.70;;;;;;5074157;28;20356;-66
2021/08/03 02:32:32;;;;;;;;;;;17.70;90.50;;;;;;5074166;28;19962;-65
2021/08/03 02:35:09;;;;;;;;;;;17.80;89.90;;;;;;5074144;28;20439;-65
2021/08/03 02:37:37;;;;;;;;;;;17.90;86.10;;;;;;5074078;28;19909;-64
2021/08/03 02:40:04;;;;;;;;;;;17.90;85.80;;;;;;5073903;28;19908;-67
2021/08/03 02:42:32;;;;;;;;;;;17.90;85.30;;;;;;5074072;28;19958;-66
2021/08/03 02:45:01;;;;;;;;;;;17.80;85.70;;;;;;5073849;28;19925;-66
2021/08/03 02:47:41;;;;;;;;;;;17.80;86.00;;;;;;5073810;28;20011;-66
2021/08/03 02:50:08;;;;;;;;;;;18.00;84.00;;;;;;5073844;28;19917;-66
2021/08/03 02:52:38;;;;;;;;;;;18.00;87.80;;;;;;5073969;28;20351;-66
2021/08/03 02:55:11;;;;;;;;;;;18.10;87.00;;;;;;5073391;28;19916;-67
2021/08/03 02:57:39;;;;;;;;;;;18.20;87.20;;;;;;5073715;28;19912;-67
2021/08/03 03:00:06;;;;;;;;;;;18.20;88.20;;;;;;5073678;28;19918;-66
2021/08/03 03:02:37;;;;;;;;;;;18.10;85.60;;;;;;5082529;28;19914;-66
2021/08/03 03:05:10;;;;;;;;;;;18.10;87.50;;;;;;5093832;28;19920;-67
2021/08/03 03:07:47;;;;;;;;;;;18.00;88.40;;;;;;5089381;28;19919;-66
2021/08/03 03:10:16;;;;;;;;;;;17.90;88.20;;;;;;5071901;28;19995;-66
2021/08/03 03:12:46;;;;;;;;;;;17.90;85.80;;;;;;5073496;28;19953;-66
2021/08/03 03:15:16;;;;;;;;;;;18.00;84.40;;;;;;5073375;28;20394;-67
2021/08/03 03:17:43;;;;;;;;;;;18.00;82.90;;;;;;5072809;28;19912;-66
2021/08/03 03:20:10;;;;;;;;;;;18.00;83.00;;;;;;5073469;28;19908;-66
2021/08/03 03:22:39;;;;;;;;;;;18.10;78.50;;;;;;5073239;28;19915;-66
2021/08/03 03:25:06;;;;;;;;;;;18.00;79.60;;;;;;5073157;28;19916;-66
2021/08/03 03:27:32;;;;;;;;;;;18.00;80.00;;;;;;5072886;28;19908;-65
2021/08/03 03:30:00;;;;;;;;;;;17.90;77.40;;;;;;5073273;28;20020;-66
2021/08/03 03:32:29;;;;;;;;;;;17.90;78.50;;;;;;5072774;28;19908;-66
2021/08/03 03:34:56;;;;;;;;;;;18.00;79.60;;;;;;5073082;28;19912;-67
2021/08/03 03:37:25;;;;;;;;;;;18.00;76.80;;;;;;5072712;28;19908;-66
2021/08/03 03:39:53;;;;;;;;;;;17.90;75.40;;;;;;5072564;28;19915;-65
2021/08/03 03:42:21;;;;;;;;;;;17.80;75.70;;;;;;5080492;28;20354;-65
2021/08/03 03:44:47;;;;;;;;;;;17.80;74.60;;;;;;5092503;28;19931;-67
2021/08/03 03:47:18;;;;;;;;;;;17.80;75.90;;;;;;5092782;28;20321;-65
2021/08/03 03:49:47;;;;;;;;;;;17.80;77.30;;;;;;5092172;28;20004;-66
2021/08/03 03:52:16;;;;;;;;;;;17.80;75.90;;;;;;5092906;28;19934;-66
2021/08/03 03:54:44;;;;;;;;;;;17.80;77.40;;;;;;5092608;28;19991;-65
2021/08/03 03:57:13;;;;;;;;;;;17.80;75.90;;;;;;5092940;28;19977;-65
2021/08/03 03:59:41;;;;;;;;;;;17.80;76.00;;;;;;5092654;28;19908;-66
2021/08/03 04:02:11;;;;;;;;;;;17.80;77.70;;;;;;5092863;28;19912;-67
2021/08/03 04:04:39;;;;;;;;;;;17.80;76.80;;;;;;5092187;28;19955;-64
2021/08/03 04:07:06;;;;;;;;;;;17.80;74.30;;;;;;5086528;28;19915;-66
2021/08/03 04:09:33;;;;;;;;;;;17.80;74.20;;;;;;5092378;28;20282;-64
2021/08/03 04:12:03;;;;;;;;;;;17.80;77.40;;;;;;5092620;28;19908;-65
2021/08/03 04:14:30;;;;;;;;;;;17.80;75.90;;;;;;5092647;28;19915;-65
2021/08/03 04:16:57;;;;;;;;;;;17.80;73.90;;;;;;5091277;28;19962;-65
2021/08/03 04:19:24;;;;;;;;;;;17.80;74.50;;;;;;5092400;28;19908;-65
2021/08/03 04:21:51;;;;;;;;;;;17.80;75.80;;;;;;5092393;28;19908;-65
2021/08/03 04:24:19;;;;;;;;;;;17.70;74.60;;;;;;5091136;28;19915;-65
2021/08/03 04:26:46;;;;;;;;;;;17.70;77.00;;;;;;5092392;28;19998;-65
2021/08/03 04:29:13;;;;;;;;;;;17.80;74.30;;;;;;5091134;28;20274;-64
2021/08/03 04:31:39;;;;;;;;;;;17.70;73.20;;;;;;5092102;28;19955;-66
2021/08/03 04:34:06;;;;;;;;;;;17.70;75.10;;;;;;5092452;28;20294;-66
2021/08/03 04:36:35;;;;;;;;;;;17.70;74.10;;;;;;5092379;28;20367;-65
2021/08/03 04:39:01;;;;;;;;;;;17.70;75.80;;;;;;5092348;28;19908;-65
2021/08/03 04:41:28;;;;;;;;;;;17.70;73.50;;;;;;5092436;28;20363;-65
2021/08/03 04:43:55;;;;;;;;;;;17.60;75.40;;;;;;5091875;28;20426;-66
2021/08/03 04:46:22;;;;;;;;;;;17.70;76.90;;;;;;5092468;28;19912;-66
2021/08/03 04:48:48;;;;;;;;;;;17.70;75.90;;;;;;5092282;28;19916;-65
2021/08/03 04:51:15;;;;;;;;;;;17.70;76.00;;;;;;5092365;28;19908;-66
2021/08/03 04:53:41;;;;;;;;;;;17.70;73.50;;;;;;5091960;28;19912;-65
2021/08/03 04:56:08;;;;;;;;;;;17.60;72.80;;;;;;5092245;28;19908;-65
2021/08/03 04:58:38;;;;;;;;;;;17.70;73.60;;;;;;5090857;28;19950;-65
2021/08/03 05:01:05;;;;;;;;;;;17.70;73.50;;;;;;5092431;28;20373;-66
2021/08/03 05:03:32;;;;;;;;;;;17.60;74.50;;;;;;5091832;28;19998;-65
2021/08/03 05:05:59;;;;;;;;;;;17.60;75.60;;;;;;5092075;28;19956;-65
2021/08/03 05:08:25;;;;;;;;;;;17.60;76.90;;;;;;5091927;28;19966;-65
2021/08/03 05:10:52;;;;;;;;;;;17.60;74.50;;;;;;5092105;28;19961;-65
2021/08/03 05:13:18;;;;;;;;;;;17.60;74.60;;;;;;5091908;28;19908;-65
2021/08/03 05:15:45;;;;;;;;;;;17.70;74.60;;;;;;5091790;28;20312;-66
2021/08/03 05:18:12;;;;;;;;;;;17.60;76.30;;;;;;5092207;28;20308;-66
2021/08/03 05:20:38;;;;;;;;;;;17.60;73.30;;;;;;5091978;28;19998;-65
2021/08/03 05:23:05;;;;;;;;;;;17.50;70.70;;;;;;5091806;28;19908;-66
2021/08/03 05:25:32;;;;;;;;;;;17.40;70.60;;;;;;5091658;28;19908;-65
2021/08/03 05:27:58;;;;;;;;;;;17.30;70.70;;;;;;5091812;28;20305;-65
2021/08/03 05:30:25;;;;;;;;;;;17.30;71.00;;;;;;5093388;28;19957;-66
2021/08/03 05:32:51;;;;;;;;;;;17.30;72.80;;;;;;5095844;28;19908;-66
2021/08/03 05:35:18;;;;;;;;;;;17.20;71.70;;;;;;5095864;28;20355;-66
2021/08/03 05:37:45;;;;;;;;;;;17.20;73.20;;;;;;5095512;28;19908;-66
2021/08/03 05:40:12;;;;;;;;;;;17.10;70.10;;;;;;5095752;28;19915;-67
2021/08/03 05:42:40;;;;;;;;;;;17.10;70.50;;;;;;5095883;28;19915;-66
2021/08/03 05:45:06;;;;;;;;;;;17.00;72.90;;;;;;5102534;28;20002;-65
2021/08/03 05:47:33;;;;;;;;;;;17.10;72.10;;;;;;5098284;28;19908;-64
2021/08/03 05:50:00;;;;;;;;;;;17.00;73.50;;;;;;5093311;28;19912;-64
2021/08/03 05:52:27;;;;;;;;;;;17.10;73.40;;;;;;5095316;28;20314;-65
2021/08/03 05:54:53;;;;;;;;;;;17.00;73.30;;;;;;5094775;28;20279;-65
2021/08/03 05:57:20;;;;;;;;;;;16.90;74.00;;;;;;5095346;28;20318;-67
2021/08/03 05:59:46;;;;;;;;;;;16.90;72.60;;;;;;5094996;28;19912;-65
2021/08/03 06:02:13;;;;;;;;;;;16.90;73.40;;;;;;5095423;28;19965;-65
2021/08/03 06:04:40;;;;;;;;;;;16.90;73.60;;;;;;5095074;28;19999;-67
2021/08/03 06:07:08;;;;;;;;;;;16.80;72.10;;;;;;5087681;28;20289;-64
2021/08/03 06:09:36;;;;;;;;;;;16.80;73.00;;;;;;5092732;28;19939;-66
2021/08/03 06:12:04;;;;;;;;;;;16.80;73.70;;;;;;5089397;28;19957;-67
2021/08/03 06:14:37;;;;;;;;;;;16.70;73.80;;;;;;5093655;28;19908;-67
2021/08/03 06:17:08;;;;;;;;;;;16.70;73.00;;;;;;5093523;28;19953;-67
2021/08/03 06:19:50;;;;;;;;;;;16.70;73.90;;;;;;5093515;28;19965;-66
2021/08/03 06:22:19;;;;;;;;;;;16.60;74.20;;;;;;5094427;28;19912;-66
2021/08/03 06:24:50;;;;;;;;;;;16.60;74.70;;;;;;5094611;28;20316;-65
2021/08/03 06:27:18;;;;;;;;;;;16.60;74.10;;;;;;5094705;28;19908;-67
2021/08/03 06:29:45;;;;;;;;;;;16.50;74.10;;;;;;5094263;28;19920;-66
2021/08/03 06:32:12;;;;;;;;;;;16.50;75.40;;;;;;5103299;28;19916;-65
2021/08/03 06:34:40;;;;;;;;;;;16.50;74.40;;;;;;5104251;28;19907;-67
2021/08/03 06:37:09;;;;;;;;;;;16.50;72.90;;;;;;5113623;28;19911;-65
2021/08/03 06:39:36;;;;;;;;;;;16.40;73.40;;;;;;5114820;27;19908;-64
2021/08/03 06:42:06;;;;;;;;;;;16.40;73.60;;;;;;5114413;28;19914;-68
2021/08/03 06:44:43;;;;;;;;;;;16.40;74.40;;;;;;5114532;28;19920;-65
2021/08/03 06:47:11;;;;;;;;;;;16.30;75.30;;;;;;5114620;28;19967;-65
2021/08/03 06:49:42;;;;;;;;;;;16.30;74.50;;;;;;5114307;28;20437;-67
2021/08/03 06:52:10;;;;;;;;;;;16.20;73.90;;;;;;5112147;28;20086;-65
2021/08/03 06:54:38;;;;;;;;;;;16.20;75.70;;;;;;5112329;28;20281;-64
2021/08/03 06:57:08;;;;;;;;;;;16.20;75.10;;;;;;5112400;28;19908;-65
2021/08/03 06:59:39;;;;;;;;;;;16.10;75.00;;;;;;5112141;28;19952;-65
2021/08/03 07:02:06;;;;;;;;;;;16.10;74.60;;;;;;5112321;28;20020;-67
2021/08/03 07:04:36;;;;;;;;;;;16.10;75.50;;;;;;5112010;28;20032;-64
2021/08/03 07:07:03;;;;;;;;;;;16.00;75.10;;;;;;5112136;28;19930;-65
2021/08/03 07:09:30;;;;;;;;;;;15.90;75.80;;;;;;5111948;27;20319;-65
2021/08/03 07:11:57;;;;;;;;;;;15.90;75.90;;;;;;5111997;28;19964;-67
2021/08/03 07:14:24;;;;;;;;;;;15.90;76.00;;;;;;5112129;27;19908;-66
2021/08/03 07:16:54;;;;;;;;;;;15.80;74.30;;;;;;5111777;28;20399;-67
2021/08/03 07:19:22;;;;;;;;;;;15.80;74.60;;;;;;5111822;28;19914;-66
2021/08/03 07:21:50;;;;;;;;;;;15.80;76.40;;;;;;5111502;28;19931;-66
2021/08/03 07:24:17;;;;;;;;;;;15.70;76.50;;;;;;5111685;28;19915;-65
2021/08/03 07:26:43;;;;;;;;;;;15.70;75.60;;;;;;5112165;28;19918;-65
2021/08/03 07:29:11;;;;;;;;;;;15.70;76.30;;;;;;5111884;28;19996;-67
2021/08/03 07:31:37;;;;;;;;;;;15.70;76.60;;;;;;5111227;28;19926;-65
2021/08/03 07:34:07;;;;;;;;;;;15.70;76.10;;;;;;5111848;28;19907;-66
2021/08/03 07:36:34;;;;;;;;;;;15.60;76.80;;;;;;5111848;28;19984;-67
2021/08/03 07:39:09;;;;;;;;;;;15.60;78.40;;;;;;5098314;28;19909;-66
2021/08/03 07:41:36;;;;;;;;;;;15.60;75.90;;;;;;5070781;28;20416;-66
2021/08/03 07:44:03;;;;;;;;;;;15.60;78.20;;;;;;5070999;28;19970;-66
2021/08/03 07:46:31;;;;;;;;;;;15.60;77.50;;;;;;5070484;28;19912;-66
2021/08/03 07:48:58;;;;;;;;;;;15.50;76.60;;;;;;5070808;28;19936;-66
2021/08/03 07:51:25;;;;;;;;;;;15.40;77.60;;;;;;5070539;28;19999;-66
2021/08/03 07:53:55;;;;;;;;;;;15.40;76.70;;;;;;5069489;28;21775;-65
2021/08/03 07:56:22;;;;;;;;;;;15.40;77.90;;;;;;5070836;28;20000;-65
2021/08/03 07:58:49;;;;;;;;;;;15.40;77.50;;;;;;5071269;28;19909;-64
2021/08/03 08:01:18;;;;;;;;;;;15.30;76.10;;;;;;5115378;27;19923;-66
2021/08/03 08:03:45;;;;;;;;;;;15.30;76.80;;;;;;5091310;28;19908;-64
2021/08/03 08:06:12;;;;;;;;;;;15.20;75.70;;;;;;5091302;28;20371;-65
2021/08/03 08:08:39;;;;;;;;;;;15.20;75.50;;;;;;5090510;28;20378;-66
2021/08/03 08:11:06;;;;;;;;;;;15.10;77.80;;;;;;5090458;28;19919;-67
2021/08/03 08:13:32;;;;;;;;;;;15.20;77.70;;;;;;5089942;28;19914;-66
2021/08/03 08:15:59;;;;;;;;;;;15.10;76.80;;;;;;5090022;28;19909;-66
2021/08/03 08:18:26;;;;;;;;;;;15.10;76.90;;;;;;5090387;28;19908;-65
2021/08/03 08:20:52;;;;;;;;;;;15.10;77.10;;;;;;5090534;28;20561;-67
2021/08/03 08:23:19;;;;;;;;;;;15.00;76.30;;;;;;5090508;28;19909;-66
2021/08/03 08:25:46;;;;;;;;;;;15.00;77.70;;;;;;5090004;28;19912;-66
2021/08/03 08:28:12;;;;;;;;;;;15.00;78.40;;;;;;5090576;28;19920;-66
2021/08/03 08:30:39;;;;;;;;;;;15.00;77.00;;;;;;5089835;28;19912;-65
2021/08/03 08:33:06;;;;;;;;;;;14.90;77.90;;;;;;5090238;28;19919;-67
2021/08/03 08:35:33;;;;;;;;;;;14.90;78.80;;;;;;5090283;28;19908;-66
2021/08/03 08:38:00;;;;;;;;;;;14.90;78.20;;;;;;5090088;28;19924;-65
2021/08/03 08:40:27;;;;;;;;;;;14.80;78.30;;;;;;5090012;28;20053;-66
2021/08/03 08:42:53;;;;;;;;;;;14.70;77.70;;;;;;5090302;28;19916;-67
2021/08/03 08:45:20;;;;;;;;;;;14.70;79.00;;;;;;5089712;28;20371;-65
2021/08/03 08:47:48;;;;;;;;;;;14.70;79.30;;;;;;5089849;28;19915;-68
2021/08/03 08:50:20;;;;;;;;;;;14.70;80.10;;;;;;5090161;28;19912;-64
2021/08/03 08:52:49;;;;;;;;;;;14.70;78.60;;;;;;5090000;28;19912;-67
2021/08/03 08:55:16;;;;;;;;;;;14.70;78.80;;;;;;5090120;28;19919;-65
2021/08/03 08:57:45;;;;;;;;;;;14.60;78.20;;;;;;5089939;28;19912;-65
2021/08/03 09:00:11;;;;;;;;;;;14.50;78.90;;;;;;5089632;28;20374;-65
2021/08/03 09:02:39;;;;;;;;;;;14.50;79.80;;;;;;5090202;28;19912;-65
2021/08/03 09:05:10;;;;;;;;;;;14.40;80.20;;;;;;5091226;28;19973;-65
2021/08/03 09:07:46;;;;;;;;;;;14.30;79.90;;;;;;5095706;28;19946;-65
2021/08/03 09:10:26;;;;;;;;;;;14.30;80.40;;;;;;5096077;28;20325;-64
2021/08/03 09:13:12;;;;;;;;;;;14.30;80.60;;;;;;5096182;28;19908;-64
2021/08/03 09:15:41;;;;;;;;;;;14.30;82.10;;;;;;5095596;28;20355;-65
2021/08/03 09:18:25;;;;;;;;;;;14.30;81.60;;;;;;5095935;28;19912;-64
2021/08/03 09:20:52;;;;;;;;;;;14.20;80.30;;;;;;5096116;28;19969;-65
2021/08/03 09:23:19;;;;;;;;;;;14.20;80.30;;;;;;5095752;28;19909;-65
2021/08/03 09:25:53;;;;;;;;;;;14.20;81.00;;;;;;5095613;28;20026;-64
2021/08/03 09:28:19;;;;;;;;;;;14.20;80.10;;;;;;5095613;28;20302;-65
2021/08/03 09:30:46;;;;;;;;;;;14.30;80.80;;;;;;5087271;28;19908;-68
2021/08/03 09:33:20;;;;;;;;;;;14.20;82.40;;;;;;5075401;28;19908;-66
2021/08/03 09:35:48;;;;;;;;;;;14.10;80.30;;;;;;5075105;28;19935;-63
2021/08/03 09:38:15;;;;;;;;;;;14.10;80.10;;;;;;5075195;28;19962;-66
2021/08/03 09:40:42;;;;;;;;;;;14.10;81.40;;;;;;5075336;28;19908;-64
2021/08/03 09:43:13;;;;;;;;;;;14.10;81.10;;;;;;5075137;28;19914;-66
2021/08/03 09:45:43;;;;;;;;;;;14.00;81.80;;;;;;5074577;28;19928;-65
2021/08/03 09:48:11;;;;;;;;;;;14.10;82.30;;;;;;5075119;28;20017;-66
2021/08/03 09:50:51;;;;;;;;;;;14.00;81.30;;;;;;5075021;28;19919;-65
2021/08/03 09:53:36;;;;;;;;;;;13.90;81.60;;;;;;5075012;28;20420;-66
2021/08/03 09:56:03;;;;;;;;;;;13.90;81.80;;;;;;5075142;28;20287;-64
2021/08/03 09:58:31;;;;;;;;;;;13.90;82.70;;;;;;5074981;28;19908;-65
2021/08/03 10:01:24;;;;;;;;;;;13.80;82.40;;;;;;5074293;28;19909;-65
2021/08/03 10:03:51;;;;;;;;;;;13.80;83.50;;;;;;5066630;28;19913;-66
2021/08/03 10:06:18;;;;;;;;;;;13.80;82.70;;;;;;5074736;28;20335;-65
2021/08/03 10:08:49;;;;;;;;;;;13.80;82.60;;;;;;5074578;28;19918;-65
2021/08/03 10:11:16;;;;;;;;;;;13.70;82.90;;;;;;5074263;28;20290;-64
2021/08/03 10:13:43;;;;;;;;;;;13.70;84.80;;;;;;5074694;28;20346;-64
2021/08/03 10:16:10;;;;;;;;;;;13.70;83.50;;;;;;5074253;28;19908;-65
2021/08/03 10:18:44;;;;;;;;;;;13.60;83.00;;;;;;5074423;28;19912;-64
2021/08/03 10:21:37;;;;;;;;;;;13.60;83.50;;;;;;5074286;28;20279;-65
2021/08/03 10:24:11;;;;;;;;;;;13.50;82.60;;;;;;5071958;28;19909;-65
2021/08/03 10:26:38;;;;;;;;;;;13.50;83.40;;;;;;5074704;28;19912;-64
2021/08/03 10:29:23;;;;;;;;;;;13.50;83.80;;;;;;5074658;28;19959;-66
2021/08/03 10:31:51;;;;;;;;;;;13.40;83.10;;;;;;5073991;28;19912;-67
2021/08/03 10:34:35;;;;;;;;;;;13.40;83.80;;;;;;5074138;28;20007;-67
2021/08/03 10:37:03;;;;;;;;;;;13.40;82.40;;;;;;5074195;28;19912;-66
2021/08/03 10:39:47;;;;;;;;;;;13.40;83.40;;;;;;5074083;28;19983;-65
2021/08/03 10:42:14;;;;;;;;;;;13.40;82.60;;;;;;5073954;28;19909;-65
2021/08/03 10:44:41;;;;;;;;;;;13.40;82.70;;;;;;5073804;28;19927;-65
2021/08/03 10:47:41;;;;;;;;;;;13.40;83.00;;;;;;5074203;28;20007;-66
2021/08/03 10:50:09;;;;;;;;;;;13.40;81.90;;;;;;5061978;28;19928;-68
2021/08/03 10:52:54;;;;;;;;;;;13.40;81.40;;;;;;5073946;28;19916;-67
2021/08/03 10:55:30;;;;;;;;;;;13.30;81.50;;;;;;5073968;28;19908;-68
2021/08/03 10:58:13;;;;;;;;;;;13.30;82.10;;;;;;5074023;28;20387;-66
2021/08/03 11:00:46;;;;;;;;;;;13.20;81.50;;;;;;5074020;28;20287;-65
2021/08/03 11:03:31;;;;;;;;;;;13.10;81.50;;;;;;5106469;28;19960;-66
2021/08/03 11:05:58;;;;;;;;;;;13.10;81.40;;;;;;5073503;28;20399;-66
2021/08/03 11:08:34;;;;;;;;;;;13.10;80.90;;;;;;5073613;28;19977;-68
2021/08/03 11:11:08;;;;;;;;;;;13.10;81.30;;;;;;5106152;28;20320;-65
2021/08/03 11:13:43;;;;;;;;;;;13.10;80.90;;;;;;5073387;28;19908;-66
2021/08/03 11:16:22;;;;;;;;;;;13.00;81.30;;;;;;5073420;28;20000;-64
2021/08/03 11:18:53;;;;;;;;;;;13.00;81.20;;;;;;5073440;28;19909;-66
2021/08/03 11:21:23;;;;;;;;;;;13.00;81.80;;;;;;5104986;28;19909;-67
2021/08/03 11:24:28;;;;;;;;;;;13.10;81.60;;;;;;5073088;28;19913;-65
2021/08/03 11:26:56;;;;;;;;;;;13.20;82.20;;;;;;5034440;28;19908;-67
2021/08/03 11:29:37;;;;;;;;;;;13.20;81.20;;;;;;5050095;28;20028;-66
2021/08/03 11:32:07;;;;;;;;;;;13.10;80.40;;;;;;5063974;28;19912;-67
2021/08/03 11:34:34;;;;;;;;;;;13.20;81.10;;;;;;5105633;28;20275;-66
2021/08/03 11:37:03;;;;;;;;;;;13.20;81.90;;;;;;5073003;28;19992;-67
2021/08/03 11:39:35;;;;;;;;;;;13.10;82.10;;;;;;5072831;28;20351;-65
2021/08/03 11:42:02;;;;;;;;;;;13.20;82.00;;;;;;5075749;28;19919;-67
2021/08/03 11:44:29;;;;;;;;;;;13.20;81.40;;;;;;5092694;28;19967;-67
2021/08/03 11:46:57;;;;;;;;;;;13.20;81.50;;;;;;5093205;28;20367;-67
2021/08/03 11:49:28;;;;;;;;;;;13.20;81.50;;;;;;5093243;28;19916;-66
2021/08/03 11:52:04;;;;;;;;;;;13.10;82.60;;;;;;5092453;28;19908;-68
2021/08/03 11:54:30;;;;;;;;;;;13.10;82.90;;;;;;5093065;28;20255;-65
2021/08/03 11:56:57;;;;;;;;;;;13.20;82.00;;;;;;5093034;28;19908;-65
2021/08/03 11:59:33;;;;;;;;;;;13.20;83.30;;;;;;5093278;28;20003;-69
2021/08/03 12:02:00;;;;;;;;;;;13.30;83.50;;;;;;5092947;28;19961;-66
2021/08/03 12:04:26;;;;;;;;;;;13.30;84.20;;;;;;5092943;28;19962;-67
2021/08/03 12:06:53;;;;;;;;;;;13.20;83.70;;;;;;5093022;28;19915;-65
2021/08/03 12:09:21;;;;;;;;;;;13.30;84.00;;;;;;5092831;28;19916;-68
2021/08/03 12:12:00;;;;;;;;;;;13.30;82.80;;;;;;5092630;28;19912;-65
2021/08/03 12:14:35;;;;;;;;;;;13.30;84.00;;;;;;5092975;28;20358;-68
2021/08/03 12:17:02;;;;;;;;;;;13.30;83.40;;;;;;5092821;28;19908;-65
2021/08/03 12:19:34;;;;;;;;;;;13.30;84.20;;;;;;5083532;28;19995;-66
2021/08/03 12:22:02;;;;;;;;;;;13.30;84.40;;;;;;5072381;28;19912;-64
2021/08/03 12:24:29;;;;;;;;;;;13.30;84.30;;;;;;5071797;28;19908;-64
2021/08/03 12:27:11;;;;;;;;;;;13.30;83.90;;;;;;5072570;28;19915;-67
2021/08/03 12:29:38;;;;;;;;;;;13.20;83.80;;;;;;5071856;28;19986;-65
2021/08/03 12:32:05;;;;;;;;;;;13.30;84.70;;;;;;5072393;28;20370;-65
2021/08/03 12:34:38;;;;;;;;;;;13.30;84.80;;;;;;5072442;28;19915;-66
2021/08/03 12:37:06;;;;;;;;;;;13.20;85.90;;;;;;5072022;28;19908;-65
2021/08/03 12:39:47;;;;;;;;;;;13.20;86.40;;;;;;5071193;28;19991;-64
2021/08/03 12:44:51;;;;;;;;;;;13.20;85.80;;;;;;5072097;28;19956;-68
2021/08/03 12:47:17;;;;;;;;;;;13.10;85.90;;;;;;5071999;28;20275;-64
2021/08/03 12:49:45;;;;;;;;;;;13.20;86.90;;;;;;5071915;28;19921;-65
2021/08/03 12:52:21;;;;;;;;;;;13.10;85.90;;;;;;5071839;28;19908;-65
2021/08/03 12:54:59;;;;;;;;;;;13.10;85.80;;;;;;5071411;28;19912;-67
2021/08/03 12:57:43;;;;;;;;;;;13.00;85.60;;;;;;5072023;28;20396;-64
2021/08/03 13:00:27;;;;;;;;;;;13.10;86.10;;;;;;5071898;28;20031;-64
2021/08/03 13:02:54;;;;;;;;;;;13.10;86.80;;;;;;5072125;28;19951;-65
2021/08/03 13:05:21;;;;;;;;;;;13.00;85.80;;;;;;5071098;28;20426;-64
2021/08/03 13:07:47;;;;;;;;;;;12.90;86.60;;;;;;5071381;28;19924;-65
2021/08/03 13:10:14;;;;;;;;;;;13.00;86.30;;;;;;5070589;28;19913;-64
2021/08/03 13:12:40;;;;;;;;;;;12.90;87.70;;;;;;5071586;28;20371;-64
2021/08/03 13:15:07;;;;;;;;;;;12.80;86.70;;;;;;5072006;28;19919;-64
2021/08/03 13:17:34;;;;;;;;;;;12.80;87.10;;;;;;5071859;28;19908;-64
2021/08/03 13:20:01;;;;;;;;;;;12.90;87.00;;;;;;5071741;28;19946;-64
2021/08/03 13:22:28;;;;;;;;;;;12.90;88.60;;;;;;5071976;28;19982;-65
2021/08/03 13:24:54;;;;;;;;;;;12.70;87.20;;;;;;5071726;28;20006;-65
2021/08/03 13:27:21;;;;;;;;;;;12.80;88.00;;;;;;5072007;28;20054;-65
2021/08/03 13:29:48;;;;;;;;;;;12.80;89.10;;;;;;5071559;28;19920;-65
2021/08/03 13:32:14;;;;;;;;;;;12.70;88.00;;;;;;5071636;28;19987;-64
2021/08/03 13:34:41;;;;;;;;;;;12.60;88.60;;;;;;5071709;28;19915;-65
2021/08/03 13:37:07;;;;;;;;;;;12.70;88.40;;;;;;5071871;28;20003;-65
2021/08/03 13:39:34;;;;;;;;;;;12.60;88.90;;;;;;5071475;28;19948;-65
2021/08/03 13:42:01;;;;;;;;;;;12.70;89.00;;;;;;5071659;28;19915;-65
2021/08/03 13:44:27;;;;;;;;;;;12.60;89.70;;;;;;5071516;28;19925;-64
2021/08/03 13:46:55;;;;;;;;;;;12.70;89.40;;;;;;5071725;28;19966;-65
2021/08/03 13:49:22;;;;;;;;;;;12.60;89.50;;;;;;5071649;28;19916;-64
2021/08/03 13:51:49;;;;;;;;;;;12.70;89.80;;;;;;5072854;28;19914;-64
2021/08/03 13:54:15;;;;;;;;;;;12.70;89.30;;;;;;5075217;28;20355;-64
2021/08/03 13:56:42;;;;;;;;;;;12.70;90.10;;;;;;5075250;28;19951;-66
2021/08/03 13:59:09;;;;;;;;;;;12.60;90.20;;;;;;5074934;28;19912;-65
2021/08/03 14:01:35;;;;;;;;;;;12.50;88.50;;;;;;5074744;28;19957;-64
2021/08/03 14:04:02;;;;;;;;;;;12.50;89.80;;;;;;5074982;28;19912;-65
2021/08/03 14:06:28;;;;;;;;;;;12.40;89.10;;;;;;5074791;28;19976;-64
2021/08/03 14:08:55;;;;;;;;;;;12.40;89.80;;;;;;5074982;28;19923;-64
2021/08/03 14:11:22;;;;;;;;;;;12.40;90.00;;;;;;5074989;28;20389;-64
2021/08/03 14:13:49;;;;;;;;;;;12.50;90.10;;;;;;5074755;28;19908;-65
2021/08/03 14:16:15;;;;;;;;;;;12.40;89.70;;;;;;5074996;28;19958;-65
2021/08/03 14:18:42;;;;;;;;;;;12.40;89.40;;;;;;5074778;28;20389;-65
2021/08/03 14:21:08;;;;;;;;;;;12.40;88.90;;;;;;5074413;28;19908;-65
2021/08/03 14:23:35;;;;;;;;;;;12.40;89.50;;;;;;5074525;28;19908;-65
2021/08/03 14:26:02;;;;;;;;;;;12.30;89.10;;;;;;5074648;28;19958;-63
2021/08/03 14:28:28;;;;;;;;;;;12.30;89.60;;;;;;5074404;28;19951;-65
2021/08/03 14:30:55;;;;;;;;;;;12.20;89.10;;;;;;5074430;28;19908;-64
2021/08/03 14:33:22;;;;;;;;;;;12.20;88.80;;;;;;5074529;28;19995;-64